TimeCST,TemperatureF,Dew PointF,Humidity,Sea Level PressureIn,VisibilityMPH,Wind Direction,Wind SpeedMPH,Gust SpeedMPH,PrecipitationIn,Events,Conditions,WindDirDegrees,DateUTC
12:15 AM,25.7,23.0,89,29.97,7.0,Calm,Calm,-,N/A,,Overcast,0,2012-12-28 06:15:00
12:35 AM,25.7,23.0,89,29.96,7.0,Calm,Calm,-,N/A,,Overcast,0,2012-12-28 06:35:00
12:55 AM,25.7,23.2,90,29.96,7.0,Calm,Calm,-,N/A,,Overcast,0,2012-12-28 06:55:00
1:15 AM,25.5,23.7,93,29.96,7.0,Calm,Calm,-,N/A,,Overcast,0,2012-12-28 07:15:00
1:35 AM,25.3,24.4,96,29.96,5.0,Calm,Calm,-,N/A,,Overcast,0,2012-12-28 07:35:00
1:55 AM,25.2,24.4,97,29.96,5.0,Calm,Calm,-,N/A,,Overcast,0,2012-12-28 07:55:00
2:15 AM,25.0,24.4,98,29.97,5.0,Calm,Calm,-,N/A,,Overcast,0,2012-12-28 08:15:00
2:35 AM,24.8,24.4,99,29.96,5.0,Calm,Calm,-,N/A,,Overcast,0,2012-12-28 08:35:00
2:55 AM,24.8,24.4,99,29.97,4.0,Calm,Calm,-,N/A,,Overcast,0,2012-12-28 08:55:00
3:15 AM,24.6,24.3,99,29.97,4.0,Calm,Calm,-,N/A,,Overcast,0,2012-12-28 09:15:00
3:35 AM,24.4,24.1,99,29.97,4.0,Calm,Calm,-,N/A,,Overcast,0,2012-12-28 09:35:00
3:55 AM,24.4,24.3,99,29.97,4.0,Calm,Calm,-,N/A,,Overcast,0,2012-12-28 09:55:00
4:15 AM,23.9,23.9,100,29.96,4.0,Calm,Calm,-,N/A,,Overcast,0,2012-12-28 10:15:00
4:35 AM,23.9,23.7,99,29.96,4.0,Calm,Calm,-,N/A,,Overcast,0,2012-12-28 10:35:00
5:15 AM,23.7,23.4,99,29.96,4.0,Calm,Calm,-,N/A,,Overcast,0,2012-12-28 11:15:00
5:35 AM,23.7,23.0,97,29.96,5.0,Calm,Calm,-,N/A,,Overcast,0,2012-12-28 11:35:00
5:55 AM,23.7,23.0,97,29.96,5.0,Calm,Calm,-,N/A,,Overcast,0,2012-12-28 11:55:00
6:15 AM,23.5,22.8,97,29.97,4.0,Calm,Calm,-,N/A,,Overcast,0,2012-12-28 12:15:00
6:35 AM,23.5,22.8,97,29.97,5.0,Calm,Calm,-,N/A,Snow,Light Snow,0,2012-12-28 12:35:00
6:55 AM,23.5,22.6,96,29.98,5.0,Calm,Calm,-,N/A,Snow,Light Snow,0,2012-12-28 12:55:00
7:15 AM,23.5,22.5,96,29.98,5.0,Calm,Calm,-,N/A,,Overcast,0,2012-12-28 13:15:00
7:35 AM,23.4,22.1,95,29.98,5.0,Calm,Calm,-,N/A,Snow,Light Snow,0,2012-12-28 13:35:00
7:55 AM,23.4,22.1,95,29.99,5.0,Calm,Calm,-,N/A,,Overcast,0,2012-12-28 13:55:00
8:15 AM,23.0,21.9,96,29.99,4.0,Calm,Calm,-,N/A,Snow,Light Snow,0,2012-12-28 14:15:00
8:35 AM,23.0,21.6,94,29.99,4.0,Calm,Calm,-,N/A,Snow,Light Snow,0,2012-12-28 14:35:00
8:55 AM,23.0,21.6,94,29.99,4.0,Calm,Calm,-,N/A,Snow,Light Snow,0,2012-12-28 14:55:00
9:15 AM,23.0,21.2,93,29.99,4.0,NNW,4.6,-,N/A,Snow,Light Snow,330,2012-12-28 15:15:00
9:35 AM,23.0,21.2,93,29.99,4.0,NNW,4.6,-,N/A,Snow,Light Snow,340,2012-12-28 15:35:00
9:55 AM,23.7,21.7,92,30.00,4.0,Calm,Calm,-,N/A,Snow,Light Snow,0,2012-12-28 15:55:00
10:15 AM,23.9,20.3,86,30.00,5.0,North,9.2,-,N/A,,Overcast,350,2012-12-28 16:15:00
10:35 AM,24.1,20.3,85,30.00,5.0,North,10.4,-,N/A,,Overcast,350,2012-12-28 16:35:00
10:55 AM,24.6,20.3,84,30.00,5.0,Calm,Calm,-,N/A,,Overcast,0,2012-12-28 16:55:00
11:15 AM,24.4,19.8,82,30.00,5.0,North,10.4,-,N/A,,Overcast,350,2012-12-28 17:15:00
11:35 AM,25.5,20.1,80,30.00,5.0,NW,8.1,-,N/A,,Haze,320,2012-12-28 17:35:00
11:55 AM,25.2,19.6,79,29.99,5.0,NNW,9.2,-,N/A,,Haze,330,2012-12-28 17:55:00
12:15 PM,25.9,19.6,77,29.98,5.0,NNW,10.4,-,N/A,,Haze,330,2012-12-28 18:15:00
12:35 PM,26.1,19.4,76,29.97,7.0,NNW,10.4,-,N/A,,Overcast,330,2012-12-28 18:35:00
12:55 PM,25.7,19.2,76,29.97,7.0,NNW,10.4,-,N/A,,Overcast,330,2012-12-28 18:55:00
1:15 PM,26.1,19.2,75,29.96,7.0,NW,9.2,-,N/A,,Overcast,320,2012-12-28 19:15:00
1:35 PM,26.6,19.2,74,29.96,7.0,NW,10.4,17.3,N/A,,Overcast,320,2012-12-28 19:35:00
1:55 PM,26.2,18.9,74,29.96,7.0,NW,10.4,-,N/A,,Overcast,310,2012-12-28 19:55:00
2:15 PM,26.2,18.5,73,29.96,7.0,NW,11.5,-,N/A,,Overcast,320,2012-12-28 20:15:00
2:35 PM,26.1,18.5,73,29.97,7.0,NW,12.7,-,N/A,,Mostly Cloudy,310,2012-12-28 20:35:00
2:55 PM,25.5,18.1,74,29.98,7.0,NW,16.1,-,N/A,,Mostly Cloudy,320,2012-12-28 20:55:00
3:15 PM,23.9,17.4,76,29.98,7.0,NW,11.5,18.4,N/A,,Mostly Cloudy,320,2012-12-28 21:15:00
3:35 PM,23.5,16.9,76,29.99,10.0,NW,6.9,-,N/A,,Scattered Clouds,310,2012-12-28 21:35:00
3:55 PM,23.0,16.9,77,29.99,10.0,NW,11.5,-,N/A,,Mostly Cloudy,320,2012-12-28 21:55:00
4:35 PM,22.1,16.9,80,30.00,7.0,NNW,15.0,-,N/A,,Overcast,340,2012-12-28 22:35:00
4:55 PM,22.1,17.4,82,30.01,7.0,NW,10.4,-,N/A,,Overcast,320,2012-12-28 22:55:00
5:15 PM,22.5,18.0,83,30.01,7.0,NW,4.6,-,N/A,Snow,Light Snow,320,2012-12-28 23:15:00
5:35 PM,22.3,18.3,85,30.01,7.0,NW,11.5,-,N/A,Snow,Light Snow,320,2012-12-28 23:35:00
5:55 PM,22.1,18.0,84,30.02,10.0,NW,11.5,-,N/A,,Overcast,320,2012-12-28 23:55:00
6:15 PM,22.1,17.8,83,30.02,7.0,NNW,10.4,-,N/A,,Overcast,330,2012-12-29 00:15:00
6:35 PM,22.1,17.6,83,30.03,7.0,NW,10.4,-,N/A,,Overcast,320,2012-12-29 00:35:00
6:55 PM,21.6,17.2,83,30.03,7.0,NNW,15.0,18.4,N/A,,Overcast,330,2012-12-29 00:55:00
7:15 PM,21.2,17.1,84,30.04,7.0,NNW,13.8,19.6,N/A,,Overcast,330,2012-12-29 01:15:00
7:35 PM,20.8,16.3,83,30.05,7.0,NW,12.7,-,N/A,,Overcast,320,2012-12-29 01:35:00
7:55 PM,19.6,15.4,84,30.05,7.0,NNW,15.0,19.6,N/A,Snow,Light Snow,330,2012-12-29 01:55:00
8:15 PM,19.4,15.3,84,30.06,10.0,NNW,17.3,-,N/A,,Overcast,340,2012-12-29 02:15:00
8:35 PM,19.0,14.7,83,30.06,7.0,NNW,15.0,-,N/A,,Overcast,340,2012-12-29 02:35:00
8:55 PM,18.9,14.7,84,30.07,7.0,NNW,13.8,18.4,N/A,,Overcast,340,2012-12-29 02:55:00
9:15 PM,19.0,14.9,84,30.07,7.0,NNW,13.8,18.4,N/A,,Overcast,330,2012-12-29 03:15:00
9:35 PM,19.0,14.9,84,30.07,7.0,NNW,12.7,-,N/A,,Overcast,340,2012-12-29 03:35:00
9:55 PM,19.0,14.9,84,30.07,7.0,NNW,10.4,-,N/A,,Overcast,330,2012-12-29 03:55:00
10:15 PM,18.9,14.9,85,30.08,5.0,NNW,15.0,-,N/A,,Overcast,340,2012-12-29 04:15:00
10:35 PM,18.9,14.9,85,30.08,5.0,NNW,12.7,17.3,N/A,,Overcast,340,2012-12-29 04:35:00
10:55 PM,18.9,14.7,84,30.09,7.0,NNW,15.0,-,N/A,,Overcast,340,2012-12-29 04:55:00
11:15 PM,19.0,15.3,85,30.10,7.0,NNW,11.5,-,N/A,,Overcast,340,2012-12-29 05:15:00
11:35 PM,19.0,15.1,85,30.10,5.0,NNW,8.1,-,N/A,Snow,Light Snow,340,2012-12-29 05:35:00
11:55 PM,18.3,14.9,86,30.10,4.0,Calm,Calm,-,N/A,Snow,Light Snow,0,2012-12-29 05:55:00